16ME weather

Presque Isle Heliport
Presque Isle, Maine, United States

Public forecast

Using degrees Fahrenheit for public forecast. Weather courtesy of forecast.io.

Closest aviation weather report (METAR) to Presque Isle Heliport

Closest report is Presque Isle International Airport, 2.0 nm (3.8 km) WNW. Retrieved 2020/08/05 23:56 UTC (21 minutes ago):

KPQI 052356Z AUTO 24007KT 10SM FEW060 23/18 A2987 RMK AO2 SLP136 T02280183 10283 20222 53012

Closest aviation forecast (TAF) to Presque Isle Heliport

Closest forecast is Presque Isle International Airport, 2.0 nm (3.8 km) WNW. Retrieved 2020-08-06 00:39 UTC (0 seconds ago):

TAF KPQI 052336Z 0600/0624 23006KT P6SM FEW070 FM061300 24013G22KT P6SM FEW050